createdAt,value
2018-03-22T00:00:50.764Z,-1.20
2018-03-22T00:03:18.697Z,-1.20
2018-03-22T00:05:46.636Z,-1.20
2018-03-22T00:08:14.562Z,-1.20
2018-03-22T00:10:42.512Z,-1.20
2018-03-22T00:13:10.386Z,-1.10
2018-03-22T00:15:38.320Z,-1.10
2018-03-22T00:18:06.260Z,-1.10
2018-03-22T00:20:34.900Z,-1.30
2018-03-22T00:23:02.856Z,-1.30
2018-03-22T00:25:30.726Z,-1.40
2018-03-22T00:27:58.644Z,-1.40
2018-03-22T00:30:26.520Z,-1.40
2018-03-22T00:32:54.463Z,-1.30
2018-03-22T00:35:22.345Z,-1.30
2018-03-22T00:37:51.044Z,-1.20
2018-03-22T00:40:19.681Z,-1.10
2018-03-22T00:42:47.595Z,-1.10
2018-03-22T00:45:16.224Z,-1.00
2018-03-22T00:47:44.898Z,-1.10
2018-03-22T00:50:12.780Z,-1.10
2018-03-22T00:52:40.707Z,-1.10
2018-03-22T00:55:08.566Z,-1.10
2018-03-22T00:57:37.260Z,-1.00
2018-03-22T01:00:05.940Z,-0.90
2018-03-22T01:02:33.976Z,-0.90
2018-03-22T01:05:01.898Z,-0.90
2018-03-22T01:07:29.816Z,-1.00
2018-03-22T01:09:57.727Z,-1.00
2018-03-22T01:12:25.611Z,-0.90
2018-03-22T01:14:53.533Z,-0.80
2018-03-22T01:17:21.410Z,-0.80
2018-03-22T01:19:49.327Z,-0.80
2018-03-22T01:22:17.236Z,-0.90
2018-03-22T01:24:45.163Z,-1.00
2018-03-22T01:27:13.029Z,-0.90
2018-03-22T01:29:40.951Z,-0.80
2018-03-22T01:32:09.007Z,-0.80
2018-03-22T01:34:36.927Z,-0.80
2018-03-22T01:37:04.836Z,-0.70
2018-03-22T01:39:32.761Z,-0.70
2018-03-22T01:42:00.636Z,-0.70
2018-03-22T01:44:28.563Z,-0.60
2018-03-22T01:46:56.423Z,-0.70
2018-03-22T01:49:24.351Z,-0.70
2018-03-22T01:51:52.231Z,-0.70
2018-03-22T01:54:20.108Z,-0.70
2018-03-22T01:56:48.036Z,-0.80
2018-03-22T01:59:15.918Z,-0.90
2018-03-22T02:01:45.982Z,-0.80
2018-03-22T02:04:13.885Z,-0.80
2018-03-22T02:06:41.819Z,-0.90
2018-03-22T02:09:09.691Z,-0.90
2018-03-22T02:11:37.611Z,-0.90
2018-03-22T02:14:05.479Z,-0.90
2018-03-22T02:16:33.398Z,-1.00
2018-03-22T02:19:01.268Z,-1.00
2018-03-22T02:21:29.193Z,-0.90
2018-03-22T02:23:57.059Z,-0.90
2018-03-22T02:26:24.982Z,-0.80
2018-03-22T02:28:52.851Z,-0.70
2018-03-22T02:31:20.959Z,-0.60
2018-03-22T02:33:48.826Z,-0.60
2018-03-22T02:36:16.708Z,-0.40
2018-03-22T02:38:44.625Z,-0.40
2018-03-22T02:41:12.494Z,-0.30
2018-03-22T02:43:40.420Z,-0.40
2018-03-22T02:46:08.293Z,-0.50
2018-03-22T02:48:36.298Z,-0.50
2018-03-22T02:51:04.180Z,-0.50
2018-03-22T02:53:32.106Z,-0.40
2018-03-22T02:55:59.965Z,-0.30
2018-03-22T02:58:27.898Z,-0.30
2018-03-22T03:00:56.536Z,-0.30
2018-03-22T03:03:25.720Z,-0.30
2018-03-22T03:05:55.090Z,-0.20
2018-03-22T03:08:24.141Z,-0.10
2018-03-22T03:10:53.138Z,-0.10
2018-03-22T03:13:21.263Z,-0.10
2018-03-22T03:15:49.133Z,-0.10
2018-03-22T03:18:16.999Z,-0.10
2018-03-22T03:20:44.906Z,-0.30
2018-03-22T03:23:12.773Z,-0.40
2018-03-22T03:25:40.713Z,-0.40
2018-03-22T03:28:08.571Z,-0.40
2018-03-22T03:30:37.248Z,-0.30
2018-03-22T03:33:05.120Z,-0.30
2018-03-22T03:35:33.039Z,-0.20
2018-03-22T03:38:00.917Z,-0.10
2018-03-22T03:40:28.840Z,-0.10
2018-03-22T03:42:56.863Z,0.00
2018-03-22T03:45:24.785Z,0.00
2018-03-22T03:47:52.688Z,0.00
2018-03-22T03:50:20.558Z,0.00
2018-03-22T03:52:48.482Z,-0.10
2018-03-22T03:55:16.434Z,-0.20
2018-03-22T03:57:44.304Z,-0.10
2018-03-22T04:00:12.419Z,-0.10
2018-03-22T04:02:40.288Z,-0.10
2018-03-22T04:05:08.213Z,-0.10
2018-03-22T04:07:36.121Z,0.00
2018-03-22T04:10:04.034Z,-0.10
2018-03-22T04:12:35.907Z,0.00
2018-03-22T04:15:03.815Z,0.00
2018-03-22T04:17:31.733Z,0.10
2018-03-22T04:19:59.595Z,0.20
2018-03-22T04:22:27.524Z,0.20
2018-03-22T04:24:55.397Z,0.20
2018-03-22T04:27:23.312Z,0.30
2018-03-22T04:29:51.168Z,0.20
2018-03-22T04:32:19.103Z,0.20
2018-03-22T04:34:46.967Z,0.20
2018-03-22T04:37:14.882Z,0.10
2018-03-22T04:39:42.740Z,0.10
2018-03-22T04:42:10.662Z,0.10
2018-03-22T04:44:38.531Z,0.10
2018-03-22T04:47:06.443Z,0.00
2018-03-22T04:49:34.316Z,0.00
2018-03-22T04:52:02.226Z,0.10
2018-03-22T04:54:30.091Z,0.20
2018-03-22T04:56:58.005Z,0.20
2018-03-22T04:59:25.890Z,0.30
2018-03-22T05:01:54.596Z,0.40
2018-03-22T05:04:23.227Z,0.40
2018-03-22T05:06:51.139Z,0.40
2018-03-22T05:09:19.056Z,0.50
2018-03-22T05:11:48.129Z,0.50
2018-03-22T05:14:15.987Z,0.40
2018-03-22T05:16:47.821Z,0.30
2018-03-22T05:19:16.956Z,0.30
2018-03-22T05:21:45.827Z,0.30
2018-03-22T05:24:14.963Z,0.20
2018-03-22T05:26:44.572Z,0.30
2018-03-22T05:29:14.488Z,0.30
2018-03-22T05:31:43.351Z,0.30
2018-03-22T05:34:12.277Z,0.40
2018-03-22T05:36:41.305Z,0.50
2018-03-22T05:39:10.376Z,0.50
2018-03-22T05:41:39.063Z,0.50
2018-03-22T05:44:12.256Z,0.40
2018-03-22T05:46:43.433Z,0.50
2018-03-22T05:49:14.704Z,0.60
2018-03-22T05:51:45.793Z,0.70
2018-03-22T05:54:17.270Z,0.70
2018-03-22T05:56:45.319Z,0.70
2018-03-22T05:59:13.388Z,0.80
2018-03-22T06:01:41.243Z,0.70
2018-03-22T06:04:09.159Z,0.80
2018-03-22T06:06:37.018Z,0.80
2018-03-22T06:09:05.006Z,0.90
2018-03-22T06:11:32.873Z,0.90
2018-03-22T06:14:00.779Z,0.90
2018-03-22T06:16:28.639Z,0.90
2018-03-22T06:18:56.551Z,0.90
2018-03-22T06:21:28.005Z,0.90
2018-03-22T06:23:55.938Z,0.90
2018-03-22T06:26:23.802Z,1.00
2018-03-22T06:28:51.668Z,1.10
2018-03-22T06:31:19.574Z,1.10
2018-03-22T06:33:47.433Z,1.20
2018-03-22T06:36:15.338Z,1.30
2018-03-22T06:38:43.195Z,1.40
2018-03-22T06:41:11.113Z,1.30
2018-03-22T06:43:38.974Z,1.30
2018-03-22T06:46:06.892Z,1.40
2018-03-22T06:48:34.748Z,1.50
2018-03-22T06:51:02.654Z,1.60
2018-03-22T06:53:30.572Z,1.60
2018-03-22T06:55:58.482Z,1.70
2018-03-22T06:58:26.334Z,1.80
2018-03-22T07:00:54.240Z,1.90
2018-03-22T07:03:22.851Z,1.90
2018-03-22T07:05:50.808Z,2.00
2018-03-22T07:08:18.658Z,2.00
2018-03-22T07:10:47.327Z,2.10
2018-03-22T07:13:15.352Z,2.10
2018-03-22T07:15:43.311Z,2.20
2018-03-22T07:18:11.162Z,2.20
2018-03-22T07:20:39.012Z,2.20
2018-03-22T07:23:06.908Z,2.20
2018-03-22T07:25:34.786Z,2.20
2018-03-22T07:28:02.677Z,2.20
2018-03-22T07:30:30.531Z,2.20
2018-03-22T07:32:58.427Z,2.10
2018-03-22T07:35:26.267Z,2.00
2018-03-22T07:37:54.162Z,1.90
2018-03-22T07:40:22.009Z,1.90
2018-03-22T07:42:56.707Z,1.70
2018-03-22T07:45:24.562Z,1.60
2018-03-22T07:47:52.482Z,1.50
2018-03-22T07:50:20.332Z,1.40
2018-03-22T07:52:48.238Z,1.50
2018-03-22T07:55:16.209Z,1.50
2018-03-22T07:57:44.171Z,1.50
2018-03-22T08:00:12.032Z,1.50
2018-03-22T08:02:39.936Z,1.40
2018-03-22T08:05:07.839Z,1.30
2018-03-22T08:07:35.692Z,1.30
2018-03-22T08:10:03.683Z,1.30
2018-03-22T08:12:31.536Z,1.30
2018-03-22T08:14:59.444Z,1.30
2018-03-22T08:17:27.292Z,1.20
2018-03-22T08:19:55.183Z,1.20
2018-03-22T08:22:23.052Z,1.30
2018-03-22T08:24:50.961Z,1.40
2018-03-22T08:27:18.830Z,1.40
2018-03-22T08:29:47.503Z,1.50
2018-03-22T08:32:15.558Z,1.50
2018-03-22T08:34:43.482Z,1.60
2018-03-22T08:37:11.385Z,1.60
2018-03-22T08:39:39.308Z,1.60
2018-03-22T08:42:07.226Z,1.60
2018-03-22T08:44:35.115Z,1.60
2018-03-22T08:47:03.067Z,1.60
2018-03-22T08:49:30.964Z,1.60
2018-03-22T08:51:58.860Z,1.50
2018-03-22T08:54:26.730Z,1.60
2018-03-22T08:56:54.645Z,1.60
2018-03-22T08:59:22.540Z,1.60
2018-03-22T09:01:54.975Z,1.60
2018-03-22T09:04:22.859Z,1.60
2018-03-22T09:06:50.778Z,1.80
2018-03-22T09:09:18.697Z,1.90
2018-03-22T09:11:46.630Z,1.90
2018-03-22T09:14:14.618Z,2.00
2018-03-22T09:16:42.472Z,2.00
2018-03-22T09:19:10.357Z,2.10
2018-03-22T09:21:38.290Z,2.00
2018-03-22T09:24:06.188Z,2.10
2018-03-22T09:26:34.714Z,2.10
2018-03-22T09:29:02.608Z,2.00
2018-03-22T09:31:30.575Z,2.00
2018-03-22T09:33:58.463Z,2.10
2018-03-22T09:36:26.375Z,2.00
2018-03-22T09:38:54.240Z,2.10
2018-03-22T09:41:22.227Z,2.10
2018-03-22T09:43:50.164Z,2.10
2018-03-22T09:46:18.099Z,2.30
2018-03-22T09:48:45.955Z,2.30
2018-03-22T09:51:13.821Z,2.40
2018-03-22T09:53:42.539Z,2.60
2018-03-22T09:56:10.467Z,2.60
2018-03-22T09:58:38.398Z,2.60
2018-03-22T10:01:07.403Z,2.60
2018-03-22T10:03:35.322Z,2.70
2018-03-22T10:06:03.205Z,2.60
2018-03-22T10:08:31.144Z,2.60
2018-03-22T10:10:59.015Z,2.50
2018-03-22T10:13:26.942Z,2.60
2018-03-22T10:15:54.811Z,2.80
2018-03-22T10:18:22.700Z,2.70
2018-03-22T10:20:50.570Z,2.80
2018-03-22T10:23:24.408Z,2.80
2018-03-22T10:25:52.324Z,2.80
2018-03-22T10:28:20.258Z,2.50
2018-03-22T10:30:52.266Z,2.60
2018-03-22T10:33:23.744Z,2.60
2018-03-22T10:35:52.038Z,2.70
2018-03-22T10:38:19.953Z,2.80
2018-03-22T10:40:47.819Z,2.90
2018-03-22T10:43:16.976Z,3.00
2018-03-22T10:45:47.964Z,3.00
2018-03-22T10:48:15.883Z,2.90
2018-03-22T10:50:45.987Z,2.90
2018-03-22T10:53:13.975Z,2.90
2018-03-22T10:55:41.851Z,2.90
2018-03-22T10:58:09.767Z,3.00
2018-03-22T11:00:38.607Z,3.00
2018-03-22T11:03:12.506Z,2.80
2018-03-22T11:05:40.549Z,3.00
2018-03-22T11:08:08.475Z,3.00
2018-03-22T11:10:36.373Z,2.90
2018-03-22T11:13:04.864Z,2.80
2018-03-22T11:15:33.195Z,2.90
2018-03-22T11:18:01.075Z,2.90
2018-03-22T11:20:28.964Z,2.80
2018-03-22T11:22:57.545Z,3.00
2018-03-22T11:25:27.456Z,3.10
2018-03-22T11:27:56.814Z,3.10
2018-03-22T11:30:31.673Z,3.20
2018-03-22T11:33:02.083Z,3.20
2018-03-22T11:35:29.979Z,3.30
2018-03-22T11:38:00.018Z,3.30
2018-03-22T11:40:32.139Z,3.40
2018-03-22T11:43:00.303Z,3.60
2018-03-22T11:45:28.211Z,3.60
2018-03-22T11:47:56.149Z,3.60
2018-03-22T11:50:24.128Z,3.70
2018-03-22T11:52:51.988Z,3.80
2018-03-22T11:55:19.911Z,3.70
2018-03-22T11:57:47.811Z,3.70
2018-03-22T12:00:15.696Z,3.70
2018-03-22T12:02:43.871Z,3.70
2018-03-22T12:05:11.748Z,3.80
2018-03-22T12:07:39.659Z,3.90
2018-03-22T12:10:07.551Z,4.00
2018-03-22T12:12:35.494Z,4.00
2018-03-22T12:15:03.424Z,4.10
2018-03-22T12:17:31.397Z,4.00
2018-03-22T12:19:59.308Z,4.00
2018-03-22T12:22:27.749Z,4.10
2018-03-22T12:24:55.698Z,4.30
2018-03-22T12:27:24.366Z,4.20
2018-03-22T12:29:52.243Z,4.20
2018-03-22T12:32:27.792Z,4.20
2018-03-22T12:34:56.432Z,4.20
2018-03-22T12:37:24.347Z,4.20
2018-03-22T12:39:52.283Z,4.20
2018-03-22T12:42:20.215Z,4.20
2018-03-22T12:44:48.133Z,4.10
2018-03-22T12:47:16.056Z,4.10
2018-03-22T12:49:43.932Z,4.00
2018-03-22T12:52:11.854Z,4.10
2018-03-22T12:54:40.496Z,4.10
2018-03-22T12:57:08.414Z,4.10
2018-03-22T12:59:37.038Z,4.20
2018-03-22T13:02:05.081Z,4.20
2018-03-22T13:04:32.974Z,4.20
2018-03-22T13:07:01.710Z,4.00
2018-03-22T13:09:29.641Z,4.10
2018-03-22T13:11:58.520Z,4.20
2018-03-22T13:14:27.085Z,4.30
2018-03-22T13:16:55.541Z,4.30
2018-03-22T13:19:23.562Z,4.40
2018-03-22T13:21:51.440Z,4.40
2018-03-22T13:24:19.357Z,4.40
2018-03-22T13:26:47.223Z,4.50
2018-03-22T13:29:15.904Z,4.50
2018-03-22T13:31:43.949Z,4.50
2018-03-22T13:34:11.861Z,4.50
2018-03-22T13:36:40.499Z,4.40
2018-03-22T13:39:08.420Z,4.40
2018-03-22T13:41:36.268Z,4.40
2018-03-22T13:44:04.441Z,4.40
2018-03-22T13:46:33.260Z,4.50
2018-03-22T13:49:01.242Z,4.40
2018-03-22T13:51:29.160Z,4.40
2018-03-22T13:53:57.027Z,4.50
2018-03-22T13:56:24.929Z,4.50
2018-03-22T13:58:53.556Z,4.50
2018-03-22T14:01:26.452Z,4.50
2018-03-22T14:03:54.307Z,4.50
2018-03-22T14:06:22.217Z,4.50
2018-03-22T14:08:50.072Z,4.40
2018-03-22T14:11:18.002Z,4.40
2018-03-22T14:13:45.855Z,4.50
2018-03-22T14:16:13.768Z,4.60
2018-03-22T14:18:41.625Z,4.60
2018-03-22T14:21:09.520Z,4.70
2018-03-22T14:23:37.382Z,4.70
2018-03-22T14:26:05.371Z,4.80
2018-03-22T14:28:33.236Z,4.80
2018-03-22T14:31:01.147Z,4.90
2018-03-22T14:33:29.022Z,4.90
2018-03-22T14:35:56.949Z,4.90
2018-03-22T14:38:25.569Z,5.00
2018-03-22T14:40:53.439Z,5.00
2018-03-22T14:43:21.340Z,5.10
2018-03-22T14:45:49.207Z,5.10
2018-03-22T14:48:17.127Z,5.20
2018-03-22T14:50:44.987Z,5.20
2018-03-22T14:53:12.895Z,5.20
2018-03-22T14:55:40.815Z,5.20
2018-03-22T14:58:09.444Z,5.10
2018-03-22T15:00:37.434Z,5.10
2018-03-22T15:03:05.390Z,5.00
2018-03-22T15:05:33.302Z,5.10
2018-03-22T15:08:01.216Z,5.10
2018-03-22T15:10:29.096Z,5.10
2018-03-22T15:12:57.023Z,5.20
2018-03-22T15:15:24.898Z,5.30
2018-03-22T15:17:52.798Z,5.40
2018-03-22T15:20:20.663Z,5.50
2018-03-22T15:22:49.456Z,5.40
2018-03-22T15:25:18.125Z,5.40
2018-03-22T15:27:46.039Z,5.40
2018-03-22T15:30:13.934Z,5.40
2018-03-22T15:32:42.550Z,5.30
2018-03-22T15:35:10.476Z,5.20
2018-03-22T15:37:38.386Z,5.30
2018-03-22T15:40:06.357Z,5.30
2018-03-22T15:42:34.283Z,5.30
2018-03-22T15:45:02.243Z,5.30
2018-03-22T15:47:30.100Z,5.40
2018-03-22T15:49:58.038Z,5.40
2018-03-22T15:52:27.151Z,5.40
2018-03-22T15:54:55.067Z,5.30
2018-03-22T15:57:22.924Z,5.40
2018-03-22T15:59:50.828Z,5.40
2018-03-22T16:02:18.703Z,5.30
2018-03-22T16:04:46.623Z,5.30
2018-03-22T16:07:14.501Z,5.30
2018-03-22T16:09:42.438Z,5.20
2018-03-22T16:12:10.370Z,5.20
2018-03-22T16:14:38.331Z,5.20
2018-03-22T16:17:06.256Z,5.20
2018-03-22T16:19:34.178Z,5.20
2018-03-22T16:22:02.053Z,5.20
2018-03-22T16:24:30.017Z,5.30
2018-03-22T16:26:58.455Z,5.30
2018-03-22T16:29:26.951Z,5.30
2018-03-22T16:31:54.904Z,5.30
2018-03-22T16:34:22.787Z,5.30
2018-03-22T16:36:51.550Z,5.20
2018-03-22T16:39:19.444Z,5.20
2018-03-22T16:41:47.395Z,5.20
2018-03-22T16:44:15.282Z,5.10
2018-03-22T16:46:43.196Z,5.10
2018-03-22T16:49:11.083Z,5.10
2018-03-22T16:51:39.124Z,5.10
2018-03-22T16:54:07.000Z,5.10
2018-03-22T16:56:34.932Z,5.10
2018-03-22T16:59:03.595Z,5.10
2018-03-22T17:01:31.715Z,5.10
2018-03-22T17:03:59.599Z,5.10
2018-03-22T17:06:27.565Z,5.10
2018-03-22T17:08:55.438Z,5.10
2018-03-22T17:11:23.324Z,5.10
2018-03-22T17:13:51.252Z,5.00
2018-03-22T17:16:19.120Z,5.00
2018-03-22T17:18:47.810Z,5.00
2018-03-22T17:21:15.883Z,5.00
2018-03-22T17:23:43.813Z,5.00
2018-03-22T17:26:11.698Z,4.90
2018-03-22T17:28:39.614Z,4.90
2018-03-22T17:31:07.611Z,4.90
2018-03-22T17:33:35.554Z,4.90
2018-03-22T17:36:03.447Z,4.90
2018-03-22T17:38:31.377Z,4.90
2018-03-22T17:40:59.261Z,4.80
2018-03-22T17:43:27.223Z,4.80
2018-03-22T17:45:55.120Z,4.80
2018-03-22T17:48:23.042Z,4.70
2018-03-22T17:50:50.966Z,4.80
2018-03-22T17:53:18.903Z,4.80
2018-03-22T17:55:46.794Z,4.80
2018-03-22T17:58:14.672Z,4.80
2018-03-22T18:00:42.607Z,4.80
2018-03-22T18:03:10.508Z,4.90
2018-03-22T18:05:38.442Z,4.80
2018-03-22T18:08:06.335Z,4.80
2018-03-22T18:10:34.282Z,4.80
2018-03-22T18:13:02.351Z,4.80
2018-03-22T18:15:30.284Z,4.80
2018-03-22T18:17:58.165Z,4.80
2018-03-22T18:20:26.873Z,4.90
2018-03-22T18:22:54.861Z,4.80
2018-03-22T18:25:22.812Z,4.90
2018-03-22T18:27:50.711Z,4.90
2018-03-22T18:30:18.702Z,4.90
2018-03-22T18:32:46.578Z,4.90
2018-03-22T18:35:14.464Z,5.00
2018-03-22T18:37:42.412Z,4.90
2018-03-22T18:40:10.536Z,4.90
2018-03-22T18:42:39.520Z,4.90
2018-03-22T18:45:07.434Z,4.90
2018-03-22T18:47:35.440Z,5.00
2018-03-22T18:50:03.476Z,5.00
2018-03-22T18:52:31.437Z,5.00
2018-03-22T18:54:59.317Z,5.00
2018-03-22T18:57:27.507Z,5.10
2018-03-22T18:59:55.518Z,5.10
2018-03-22T19:02:24.710Z,5.10
2018-03-22T19:04:52.667Z,5.10
2018-03-22T19:07:21.337Z,5.00
2018-03-22T19:09:49.202Z,5.00
2018-03-22T19:12:17.198Z,5.00
2018-03-22T19:14:45.840Z,5.10
2018-03-22T19:17:17.334Z,5.10
2018-03-22T19:19:48.799Z,5.10
2018-03-22T19:22:19.789Z,5.10
2018-03-22T19:24:51.495Z,5.20
2018-03-22T19:27:23.444Z,5.10
2018-03-22T19:29:55.291Z,5.10
2018-03-22T19:32:26.005Z,5.10
2018-03-22T19:34:56.666Z,5.20
2018-03-22T19:37:27.972Z,5.20
2018-03-22T19:39:59.123Z,5.20
2018-03-22T19:42:31.222Z,5.20
2018-03-22T19:45:02.636Z,5.20
2018-03-22T19:47:34.629Z,5.20
2018-03-22T19:50:06.107Z,5.20
2018-03-22T19:52:37.763Z,5.20
2018-03-22T19:55:09.348Z,5.20
2018-03-22T19:57:40.921Z,5.20
2018-03-22T20:00:13.075Z,5.20
2018-03-22T20:02:44.888Z,5.20
2018-03-22T20:05:17.075Z,5.10
2018-03-22T20:07:49.223Z,5.20
2018-03-22T20:10:20.329Z,5.20
2018-03-22T20:12:52.296Z,5.20
2018-03-22T20:15:24.029Z,5.20
2018-03-22T20:17:56.138Z,5.20
2018-03-22T20:20:26.274Z,5.20
2018-03-22T20:22:57.946Z,5.20
2018-03-22T20:25:26.566Z,5.20
2018-03-22T20:27:54.640Z,5.20
2018-03-22T20:30:23.314Z,5.20
2018-03-22T20:32:51.769Z,5.20
2018-03-22T20:35:20.577Z,5.20
2018-03-22T20:37:48.516Z,5.20
2018-03-22T20:40:16.975Z,5.20
2018-03-22T20:42:45.630Z,5.10
2018-03-22T20:45:14.317Z,5.20
2018-03-22T20:47:43.027Z,5.20
2018-03-22T20:50:11.257Z,5.20
2018-03-22T20:52:42.491Z,5.20
2018-03-22T20:55:11.253Z,5.10
2018-03-22T20:57:39.153Z,5.10
2018-03-22T21:00:07.923Z,5.10
2018-03-22T21:02:35.881Z,5.10
2018-03-22T21:05:05.817Z,5.10
2018-03-22T21:07:33.719Z,5.10
2018-03-22T21:10:01.672Z,5.10
2018-03-22T21:12:29.598Z,5.10
2018-03-22T21:15:01.111Z,5.10
2018-03-22T21:17:29.931Z,5.10
2018-03-22T21:19:57.890Z,5.10
2018-03-22T21:22:29.463Z,5.10
2018-03-22T21:24:57.423Z,5.10
2018-03-22T21:27:25.349Z,5.00
2018-03-22T21:29:54.079Z,5.00
2018-03-22T21:32:22.033Z,5.00
2018-03-22T21:34:50.002Z,5.00
2018-03-22T21:37:17.888Z,5.10
2018-03-22T21:39:45.811Z,5.10
2018-03-22T21:42:13.744Z,5.00
2018-03-22T21:44:42.524Z,5.00
2018-03-22T21:47:23.472Z,5.00
2018-03-22T21:49:53.648Z,5.00
2018-03-22T21:52:35.316Z,5.00
2018-03-22T21:55:04.569Z,5.00
2018-03-22T21:57:34.619Z,5.00
2018-03-22T22:00:06.459Z,5.00
2018-03-22T22:02:38.368Z,5.00
2018-03-22T22:05:11.163Z,4.90
2018-03-22T22:07:41.471Z,5.00
2018-03-22T22:10:11.227Z,4.90
2018-03-22T22:12:40.392Z,4.90
2018-03-22T22:15:09.764Z,4.90
2018-03-22T22:17:38.831Z,4.90
2018-03-22T22:20:07.953Z,4.90
2018-03-22T22:22:37.015Z,4.90
2018-03-22T22:25:07.334Z,4.90
2018-03-22T22:27:40.175Z,4.90
2018-03-22T22:30:08.420Z,4.80
2018-03-22T22:32:36.376Z,4.80
2018-03-22T22:35:04.366Z,4.80
2018-03-22T22:37:32.291Z,4.80
2018-03-22T22:40:01.049Z,4.80
2018-03-22T22:42:28.966Z,4.80
2018-03-22T22:44:57.742Z,4.80
2018-03-22T22:47:26.421Z,4.80
2018-03-22T22:49:54.398Z,4.80
2018-03-22T22:52:23.069Z,4.80
2018-03-22T22:54:51.032Z,4.70
2018-03-22T22:57:23.900Z,4.80
2018-03-22T22:59:54.262Z,4.80
2018-03-22T23:02:25.664Z,4.80
2018-03-22T23:04:54.107Z,4.80
2018-03-22T23:07:22.452Z,4.90
2018-03-22T23:09:51.058Z,4.80
2018-03-22T23:12:20.047Z,4.80
2018-03-22T23:14:48.252Z,4.80
2018-03-22T23:17:16.520Z,4.80
2018-03-22T23:19:45.772Z,4.80
2018-03-22T23:22:13.740Z,4.80
2018-03-22T23:24:42.594Z,4.80
2018-03-22T23:27:10.760Z,4.80
2018-03-22T23:29:39.258Z,4.80
2018-03-22T23:32:07.970Z,4.80
2018-03-22T23:34:36.609Z,4.80
2018-03-22T23:37:05.314Z,4.80
2018-03-22T23:39:33.212Z,4.80
2018-03-22T23:42:02.757Z,4.80
2018-03-22T23:44:31.600Z,4.70
2018-03-22T23:47:00.119Z,4.80
2018-03-22T23:49:28.339Z,4.70
2018-03-22T23:51:56.895Z,4.70
2018-03-22T23:54:25.410Z,4.80
2018-03-22T23:56:54.996Z,4.80
2018-03-22T23:59:23.173Z,4.80
